Time;durP1;ratioP1;P1;durP2;ratioP2;P2;SDS_P1;SDS_P2;PMS_P1;PMS_P2;Temp;Humidity;BMP_temperature;BMP_pressure;BME280_temperature;BME280_humidity;BME280_pressure;Samples;Min_cycle;Max_cycle;Signal;HPM_P1;HPM_P2
2022/06/02 00:01:13;;;;;;;8.30;3.78;;;9.30;99.90;;;;;;5085996;28;20105;-55
2022/06/02 00:03:53;;;;;;;4.95;3.90;;;9.30;99.90;;;;;;5084124;28;20032;-56
2022/06/02 00:06:42;;;;;;;7.03;3.53;;;9.20;99.90;;;;;;5089202;28;20393;-55
2022/06/02 00:09:35;;;;;;;4.78;3.90;;;9.20;99.90;;;;;;5084024;28;20024;-56
2022/06/02 00:12:36;;;;;;;8.20;3.92;;;9.10;99.90;;;;;;5085449;28;20497;-58
2022/06/02 00:15:23;;;;;;;7.38;4.57;;;9.10;99.90;;;;;;5088467;28;20093;-56
2022/06/02 00:18:12;;;;;;;9.77;4.30;;;9.10;99.90;;;;;;5088407;28;20103;-55
2022/06/02 00:20:47;;;;;;;9.55;4.72;;;9.10;99.90;;;;;;5088210;28;20031;-57
2022/06/02 00:23:39;;;;;;;12.55;5.32;;;9.10;99.90;;;;;;5091556;28;20045;-57
2022/06/02 00:26:11;;;;;;;13.40;4.55;;;9.10;99.90;;;;;;5088748;28;20343;-59
2022/06/02 00:28:48;;;;;;;12.35;5.28;;;9.20;99.90;;;;;;5086740;28;20031;-57
2022/06/02 00:31:31;;;;;;;13.13;4.90;;;9.20;99.90;;;;;;5081343;28;20090;-57
2022/06/02 00:34:17;;;;;;;9.02;5.22;;;9.20;99.90;;;;;;5084541;28;20486;-57
2022/06/02 00:37:04;;;;;;;9.35;4.85;;;9.20;99.90;;;;;;5085075;28;20054;-57
2022/06/02 00:39:32;;;;;;;9.65;5.07;;;9.20;99.90;;;;;;5090975;28;20036;-59
2022/06/02 00:42:06;;;;;;;8.43;4.82;;;9.10;99.90;;;;;;5088841;28;20030;-57
2022/06/02 00:44:55;;;;;;;10.93;5.03;;;9.10;99.90;;;;;;5085152;28;20502;-57
2022/06/02 00:47:33;;;;;;;11.48;5.03;;;9.10;99.90;;;;;;5085083;28;20497;-55
2022/06/02 00:50:04;;;;;;;10.43;4.85;;;9.00;99.90;;;;;;5081814;28;20023;-56
2022/06/02 00:52:47;;;;;;;14.32;5.65;;;9.00;99.90;;;;;;5087716;28;20139;-56
2022/06/02 00:58:19;;;;;;;13.38;6.20;;;8.80;99.90;;;;;;5083850;28;20122;-55
2022/06/02 01:01:04;;;;;;;12.48;5.47;;;8.80;99.90;;;;;;5087324;28;20807;-55
2022/06/02 01:03:47;;;;;;;8.40;4.78;;;8.80;99.90;;;;;;5088786;28;20032;-55
2022/06/02 01:06:18;;;;;;;7.30;4.85;;;8.70;99.90;;;;;;5086794;28;20444;-55
2022/06/02 01:09:10;;;;;;;11.00;5.47;;;8.60;99.90;;;;;;5089403;28;20063;-54
2022/06/02 01:11:59;;;;;;;10.15;5.25;;;8.70;99.90;;;;;;5088087;28;20127;-56
2022/06/02 01:14:37;;;;;;;10.55;4.88;;;8.70;99.90;;;;;;5086921;28;20021;-56
2022/06/02 01:17:22;;;;;;;11.68;5.47;;;8.70;99.90;;;;;;5087489;28;20028;-54
2022/06/02 01:20:11;;;;;;;12.65;5.20;;;8.70;99.90;;;;;;5085743;28;20505;-54
2022/06/02 01:22:59;;;;;;;13.00;4.88;;;8.70;99.90;;;;;;5088822;28;20032;-56
2022/06/02 01:25:36;;;;;;;12.80;5.88;;;8.60;99.90;;;;;;5086991;28;20649;-56
2022/06/02 01:28:39;;;;;;;16.73;6.43;;;8.60;99.90;;;;;;5079925;28;20032;-58
2022/06/02 01:31:13;;;;;;;13.52;5.05;;;8.60;99.90;;;;;;5085408;28;20053;-56
2022/06/02 01:34:03;;;;;;;16.55;6.00;;;8.60;99.90;;;;;;5084774;28;20107;-55
2022/06/02 01:36:41;;;;;;;14.73;6.55;;;8.50;99.90;;;;;;5090885;28;20099;-54
2022/06/02 01:39:06;;;;;;;10.85;6.18;;;8.60;99.90;;;;;;5085421;28;20052;-56
2022/06/02 01:42:23;;;;;;;12.07;6.47;;;8.70;99.90;;;;;;5092930;28;20063;-57
2022/06/02 01:44:56;;;;;;;14.80;7.20;;;8.70;99.90;;;;;;5047385;28;20148;-55
2022/06/02 01:47:33;;;;;;;12.20;6.85;;;8.70;99.90;;;;;;5089831;28;20128;-55
2022/06/02 01:50:33;;;;;;;15.68;7.20;;;8.60;99.90;;;;;;5085825;28;20084;-57
2022/06/02 01:53:02;;;;;;;18.00;8.88;;;8.60;99.90;;;;;;5086444;28;20024;-58
2022/06/02 01:55:46;;;;;;;16.63;7.03;;;8.60;99.90;;;;;;5080219;28;20048;-56
2022/06/02 01:58:37;;;;;;;17.20;8.57;;;8.70;99.90;;;;;;5083359;28;20466;-58
2022/06/02 02:01:28;;;;;;;12.73;7.45;;;8.70;99.90;;;;;;5078814;28;20028;-58
2022/06/02 02:03:55;;;;;;;21.88;8.40;;;8.80;99.90;;;;;;5085569;28;20077;-57
2022/06/02 02:06:31;;;;;;;20.23;8.90;;;8.80;99.90;;;;;;5092837;28;20547;-57
2022/06/02 02:09:05;;;;;;;16.42;8.63;;;8.80;99.90;;;;;;5066911;28;20059;-55
2022/06/02 02:11:48;;;;;;;18.70;7.97;;;8.70;99.90;;;;;;5088305;28;20028;-57
2022/06/02 02:14:53;;;;;;;15.65;8.15;;;8.60;99.90;;;;;;5087242;28;20040;-58
2022/06/02 02:17:40;;;;;;;18.77;9.03;;;8.60;99.90;;;;;;5007033;28;20025;-54
2022/06/02 02:20:27;;;;;;;17.63;8.13;;;8.50;99.90;;;;;;5087922;28;20035;-53
2022/06/02 02:23:01;;;;;;;17.80;7.88;;;8.40;99.90;;;;;;5090639;28;20096;-55
2022/06/02 02:25:46;;;;;;;16.30;7.93;;;8.30;99.90;;;;;;5090904;28;20138;-59
2022/06/02 02:28:36;;;;;;;18.08;8.80;;;8.20;99.90;;;;;;5093601;28;20084;-58
2022/06/02 02:31:26;;;;;;;18.83;8.50;;;8.20;99.90;;;;;;5088843;28;20486;-58
2022/06/02 02:34:17;;;;;;;17.45;9.13;;;8.20;99.90;;;;;;5092455;28;20043;-58
2022/06/02 02:36:51;;;;;;;23.33;9.27;;;8.10;99.90;;;;;;5088682;28;20042;-56
2022/06/02 02:39:38;;;;;;;17.83;8.33;;;8.10;99.90;;;;;;5088896;28;20046;-55
2022/06/02 02:42:30;;;;;;;18.38;9.00;;;8.20;99.90;;;;;;5090759;28;20358;-58
2022/06/02 02:45:02;;;;;;;24.73;10.60;;;8.30;99.90;;;;;;5081554;28;20097;-57
2022/06/02 02:47:51;;;;;;;17.40;9.10;;;8.30;99.90;;;;;;5091480;28;20020;-57
2022/06/02 02:50:19;;;;;;;19.23;10.43;;;8.30;99.90;;;;;;5090344;28;20047;-58
2022/06/02 02:53:14;;;;;;;21.08;9.50;;;8.30;99.90;;;;;;5091513;28;20063;-55
2022/06/02 02:56:04;;;;;;;;;;;8.30;99.90;;;;;;5084579;28;20081;-55
2022/06/02 02:58:42;;;;;;;24.88;9.07;;;8.30;99.90;;;;;;5088978;28;19948;-54
2022/06/02 03:01:45;;;;;;;18.40;9.65;;;8.30;99.90;;;;;;5093366;28;20085;-57
2022/06/02 03:04:10;;;;;;;19.75;9.43;;;8.20;99.90;;;;;;5088492;28;20035;-58
2022/06/02 03:06:39;;;;;;;20.08;9.75;;;8.10;99.90;;;;;;5094415;28;20390;-57
2022/06/02 03:09:18;;;;;;;19.50;9.25;;;8.10;99.90;;;;;;5098826;22;20045;-51
2022/06/02 03:12:05;;;;;;;20.48;9.82;;;8.00;99.90;;;;;;5060351;28;20040;-52
2022/06/02 03:14:34;;;;;;;20.92;9.63;;;7.90;99.90;;;;;;5069688;28;20028;-52
2022/06/02 03:17:13;;;;;;;21.42;9.80;;;7.90;99.90;;;;;;5058102;28;20032;-53
2022/06/02 03:19:45;;;;;;;18.33;9.63;;;7.90;99.90;;;;;;5068683;28;20462;-57
2022/06/02 03:22:29;;;;;;;19.25;9.63;;;7.90;99.90;;;;;;5043928;28;20119;-56
2022/06/02 03:25:06;;;;;;;20.38;8.93;;;7.80;99.90;;;;;;5062591;28;20104;-57
2022/06/02 03:27:43;;;;;;;20.02;10.30;;;7.80;99.90;;;;;;5058996;28;20033;-56
2022/06/02 03:30:15;;;;;;;19.05;9.20;;;7.90;99.90;;;;;;5063947;28;20033;-55
2022/06/02 03:32:58;;;;;;;18.30;8.82;;;7.90;99.90;;;;;;5068605;28;20056;-54
2022/06/02 03:35:51;;;;;;;18.27;9.60;;;7.80;99.90;;;;;;5059525;28;20024;-57
2022/06/02 03:38:33;;;;;;;23.55;11.15;;;7.80;99.90;;;;;;5062702;28;20024;-57
2022/06/02 03:41:17;;;;;;;24.88;10.15;;;7.80;99.90;;;;;;5064393;28;20028;-54
2022/06/02 03:43:42;;;;;;;22.63;10.38;;;7.70;99.90;;;;;;5052840;28;20025;-55
2022/06/02 03:46:28;;;;;;;27.63;11.65;;;7.80;99.90;;;;;;5059259;28;20035;-56
2022/06/02 03:49:18;;;;;;;23.73;10.88;;;7.90;99.90;;;;;;5057103;28;20024;-55
2022/06/02 03:51:51;;;;;;;19.70;10.10;;;7.90;99.90;;;;;;5060657;28;20047;-54
2022/06/02 03:54:50;;;;;;;21.38;9.85;;;7.90;99.90;;;;;;5059823;28;20029;-53
2022/06/02 03:57:33;;;;;;;28.20;10.68;;;7.80;99.90;;;;;;5066100;28;20017;-52
2022/06/02 04:00:15;;;;;;;21.90;10.88;;;7.80;99.90;;;;;;5059717;28;20047;-55
2022/06/02 04:02:47;;;;;;;18.85;10.55;;;7.90;99.90;;;;;;5054447;28;20027;-53
2022/06/02 04:05:31;;;;;;;25.02;9.95;;;8.00;99.90;;;;;;5061209;28;20021;-53
2022/06/02 04:08:38;;;;;;;26.30;11.35;;;8.10;99.90;;;;;;5061398;28;20024;-52
2022/06/02 04:11:22;;;;;;;22.35;10.00;;;8.10;99.90;;;;;;5061461;28;20036;-54
2022/06/02 04:13:59;;;;;;;;;;;8.10;99.90;;;;;;5067192;28;20028;-55
2022/06/02 04:16:53;;;;;;;26.30;11.82;;;8.20;99.90;;;;;;5057586;28;20366;-53
2022/06/02 04:22:52;;;;;;;21.55;10.25;;;8.20;99.90;;;;;;5065804;28;20133;-57
2022/06/02 04:25:17;;;;;;;20.95;9.60;;;8.20;99.90;;;;;;5058798;28;20511;-58
2022/06/02 04:27:45;;;;;;;19.48;9.10;;;8.20;99.90;;;;;;5055226;28;20033;-57
2022/06/02 04:30:58;;;;;;;16.67;9.23;;;8.20;99.90;;;;;;5059994;28;20016;-56
2022/06/02 04:33:34;;;;;;;26.02;11.25;;;8.10;99.90;;;;;;5052288;28;20037;-55
2022/06/02 04:36:26;;;;;;;25.05;10.23;;;8.10;99.90;;;;;;5055638;28;20025;-57
2022/06/02 04:39:17;;;;;;;24.15;11.32;;;8.20;99.90;;;;;;5060829;28;20052;-56
2022/06/02 04:41:53;;;;;;;24.75;11.48;;;8.30;99.90;;;;;;5059426;28;20043;-57
2022/06/02 04:44:31;;;;;;;20.75;10.38;;;8.40;99.90;;;;;;5059941;28;20028;-55
2022/06/02 04:47:27;;;;;;;23.95;10.45;;;8.50;99.90;;;;;;5044617;28;20500;-57
2022/06/02 04:50:25;;;;;;;22.27;10.73;;;8.50;99.90;;;;;;5056879;28;20017;-58
2022/06/02 04:53:08;;;;;;;23.05;11.05;;;8.60;99.90;;;;;;5059909;28;20555;-55
2022/06/02 04:55:53;;;;;;;17.45;8.93;;;8.70;99.90;;;;;;5059872;28;20056;-57
2022/06/02 04:58:27;;;;;;;21.48;10.55;;;8.70;99.90;;;;;;5058361;28;20023;-56
2022/06/02 05:01:16;;;;;;;24.23;11.40;;;8.80;99.90;;;;;;5054366;28;20097;-57
2022/06/02 05:03:53;;;;;;;23.33;11.02;;;8.90;99.90;;;;;;5019691;28;20518;-55
2022/06/02 05:06:36;;;;;;;20.95;11.13;;;8.90;99.90;;;;;;5066682;28;20017;-56
2022/06/02 05:09:26;;;;;;;23.67;10.70;;;9.00;99.90;;;;;;5064119;28;20081;-55
2022/06/02 05:12:03;;;;;;;21.00;10.88;;;9.10;99.90;;;;;;5055084;28;20024;-57
2022/06/02 05:15:04;;;;;;;20.33;11.32;;;9.20;99.90;;;;;;5065079;28;20140;-55
2022/06/02 05:17:53;;;;;;;22.08;11.88;;;9.30;99.90;;;;;;5058128;28;21278;-56
2022/06/02 05:20:55;;;;;;;27.50;12.65;;;9.40;99.90;;;;;;5056139;28;20055;-57
2022/06/02 05:23:55;;;;;;;27.15;11.82;;;9.50;99.90;;;;;;5060998;28;20063;-57
2022/06/02 05:26:44;;;;;;;29.38;11.48;;;9.70;99.90;;;;;;5062477;28;20491;-55
2022/06/02 05:29:22;;;;;;;27.10;13.23;;;9.80;99.90;;;;;;5058519;28;20043;-55
2022/06/02 05:32:30;;;;;;;25.40;12.38;;;9.90;99.90;;;;;;5071945;28;20024;-54
2022/06/02 05:35:25;;;;;;;24.23;12.30;;;10.00;99.90;;;;;;5060560;28;20025;-54
2022/06/02 05:38:00;;;;;;;29.73;12.32;;;10.00;99.90;;;;;;5033725;28;20079;-54
2022/06/02 05:40:28;;;;;;;27.30;12.75;;;10.10;99.90;;;;;;5066274;28;20016;-53
2022/06/02 05:43:13;;;;;;;28.85;12.52;;;10.20;99.90;;;;;;5065851;28;20033;-53
2022/06/02 05:45:44;;;;;;;25.77;14.68;;;10.30;99.90;;;;;;5055458;28;20078;-54
2022/06/02 05:48:37;;;;;;;27.20;13.25;;;10.30;99.90;;;;;;5053244;28;20025;-54
2022/06/02 05:51:10;;;;;;;26.08;13.30;;;10.40;99.90;;;;;;5064468;28;20417;-53
2022/06/02 05:54:05;;;;;;;27.83;14.65;;;10.50;99.90;;;;;;5057863;28;20151;-52
2022/06/02 05:56:43;;;;;;;25.02;13.90;;;10.60;99.90;;;;;;5068207;28;20381;-55
2022/06/02 05:59:14;;;;;;;25.20;12.77;;;10.70;99.90;;;;;;5071506;28;20024;-53
2022/06/02 06:01:58;;;;;;;24.90;13.25;;;10.70;99.90;;;;;;5066128;28;20033;-55
2022/06/02 06:04:33;;;;;;;31.45;14.30;;;10.80;99.90;;;;;;5062971;28;20074;-57
2022/06/02 06:07:20;;;;;;;30.73;14.57;;;10.90;99.90;;;;;;5051856;28;20521;-55
2022/06/02 06:09:56;;;;;;;26.67;14.10;;;11.00;99.90;;;;;;5058055;28;20517;-57
2022/06/02 06:12:37;;;;;;;33.97;17.30;;;11.10;99.90;;;;;;5063737;28;20032;-55
2022/06/02 06:15:23;;;;;;;39.90;15.85;;;11.20;99.90;;;;;;5052161;28;20052;-54
2022/06/02 06:18:06;;;;;;;29.27;15.55;;;11.20;99.90;;;;;;5066994;28;20052;-56
2022/06/02 06:20:47;;;;;;;29.13;15.13;;;11.30;99.90;;;;;;5053451;28;20017;-56
2022/06/02 06:23:43;;;;;;;32.30;16.48;;;11.30;99.90;;;;;;5060316;28;20040;-53
2022/06/02 06:26:24;;;;;;;29.92;16.20;;;11.40;99.90;;;;;;5059421;28;20028;-56
2022/06/02 06:29:13;;;;;;;34.90;16.92;;;11.40;99.90;;;;;;5056271;28;20120;-57
2022/06/02 06:31:50;;;;;;;31.77;15.48;;;11.40;99.90;;;;;;5054004;28;20041;-56
2022/06/02 06:34:56;;;;;;;36.22;17.95;;;11.50;99.90;;;;;;5063182;28;20441;-54
2022/06/02 06:37:28;;;;;;;;;;;11.60;99.90;;;;;;5065851;28;20048;-52
2022/06/02 06:40:17;;;;;;;31.10;14.52;;;11.70;99.90;;;;;;5069379;28;19912;-54
2022/06/02 06:43:03;;;;;;;32.35;16.58;;;11.70;99.90;;;;;;5071824;28;20021;-56
2022/06/02 06:45:40;;;;;;;34.00;17.55;;;11.80;99.90;;;;;;5066107;28;20028;-57
2022/06/02 06:48:18;;;;;;;35.70;17.15;;;11.80;99.90;;;;;;5061726;28;20027;-57
2022/06/02 06:50:56;;;;;;;40.15;18.88;;;11.90;99.90;;;;;;5059325;28;20038;-54
2022/06/02 06:53:54;;;;;;;33.17;16.48;;;12.00;99.90;;;;;;5062422;28;20025;-55
2022/06/02 06:56:39;;;;;;;32.20;17.33;;;12.00;99.90;;;;;;5060574;28;20096;-57
2022/06/02 06:59:18;;;;;;;27.17;15.63;;;12.00;99.90;;;;;;5061419;28;20024;-57
2022/06/02 07:02:35;;;;;;;39.63;18.00;;;12.20;99.90;;;;;;5058306;28;20403;-57
2022/06/02 07:05:07;;;;;;;34.28;16.27;;;12.30;99.90;;;;;;5043219;28;20050;-57
2022/06/02 07:08:00;;;;;;;33.50;15.80;;;12.40;99.90;;;;;;5067136;28;20033;-56
2022/06/02 07:10:46;;;;;;;39.78;18.33;;;12.40;99.90;;;;;;5059870;28;20131;-57
2022/06/02 07:13:34;;;;;;;29.67;14.80;;;12.50;99.90;;;;;;5053904;28;20025;-56
2022/06/02 07:16:19;;;;;;;39.40;18.10;;;12.60;99.90;;;;;;5048546;28;20083;-55
2022/06/02 07:18:56;;;;;;;40.47;18.02;;;12.70;99.90;;;;;;5051372;28;20020;-52
2022/06/02 07:21:50;;;;;;;45.83;18.17;;;12.90;99.90;;;;;;5055536;28;20123;-53
2022/06/02 07:25:20;;;;;;;33.83;15.45;;;13.00;99.90;;;;;;5059619;28;20027;-56
2022/06/02 07:28:25;;;;;;;40.10;17.83;;;13.00;99.90;;;;;;5004778;28;20036;-56
2022/06/02 07:31:23;;;;;;;43.92;19.50;;;13.20;99.90;;;;;;4990486;28;20034;-56
2022/06/02 07:33:59;;;;;;;41.25;18.65;;;13.30;99.90;;;;;;4991074;28;20042;-54
2022/06/02 07:36:44;;;;;;;38.03;18.17;;;13.40;99.90;;;;;;5043520;28;20154;-57
2022/06/02 07:39:09;;;;;;;38.72;17.95;;;13.50;99.90;;;;;;5067502;28;20032;-56
2022/06/02 07:42:25;;;;;;;34.03;16.85;;;13.60;99.90;;;;;;5062731;28;20265;-57
2022/06/02 07:45:31;;;;;;;41.65;17.40;;;13.70;99.90;;;;;;5038190;28;20067;-56
2022/06/02 07:48:14;;;;;;;37.28;18.98;;;13.80;99.90;;;;;;5061170;28;20487;-56
2022/06/02 07:50:53;;;;;;;31.45;16.83;;;13.80;99.90;;;;;;5066525;28;20040;-57
2022/06/02 07:53:37;;;;;;;39.25;19.58;;;13.80;99.90;;;;;;5061164;28;20100;-57
2022/06/02 07:56:17;;;;;;;38.67;18.05;;;13.80;99.90;;;;;;5066959;28;20100;-57
2022/06/02 07:58:59;;;;;;;30.67;14.80;;;13.90;99.90;;;;;;5059885;28;20561;-57
2022/06/02 08:01:32;;;;;;;28.98;16.00;;;14.10;99.90;;;;;;5074931;28;20032;-57
2022/06/02 08:04:14;;;;;;;32.60;15.80;;;14.20;99.90;;;;;;5069132;28;20020;-56
2022/06/02 08:06:50;;;;;;;26.30;14.55;;;14.50;99.90;;;;;;5063983;28;20036;-55
2022/06/02 08:09:41;;;;;;;28.23;12.75;;;14.60;99.90;;;;;;5065311;28;20040;-57
2022/06/02 08:12:16;;;;;;;27.98;14.55;;;14.60;99.90;;;;;;5071291;28;20020;-58
2022/06/02 08:15:11;;;;;;;26.00;12.75;;;14.70;99.90;;;;;;5049411;28;20025;-55
2022/06/02 08:18:08;;;;;;;30.63;12.93;;;14.50;99.90;;;;;;5052089;28;20127;-55
2022/06/02 08:20:54;;;;;;;33.08;14.02;;;14.20;99.90;;;;;;5074558;28;20033;-55
2022/06/02 08:23:44;;;;;;;21.40;12.02;;;14.20;99.90;;;;;;5071163;28;20057;-53
2022/06/02 08:26:33;;;;;;;22.88;11.80;;;14.10;99.90;;;;;;5060557;28;20081;-57
2022/06/02 08:29:24;;;;;;;26.67;13.13;;;14.10;99.90;;;;;;5065857;28;20030;-57
2022/06/02 08:32:11;;;;;;;20.75;11.30;;;14.20;99.90;;;;;;5069464;28;20052;-57
2022/06/02 08:35:07;;;;;;;25.27;13.77;;;14.30;99.90;;;;;;5061420;28;20027;-57
2022/06/02 08:37:51;;;;;;;36.33;15.50;;;14.50;99.90;;;;;;5060579;28;20066;-57
2022/06/02 08:40:30;;;;;;;27.65;14.25;;;14.60;99.90;;;;;;5062759;28;20552;-58
2022/06/02 08:43:21;;;;;;;27.63;13.82;;;14.80;99.90;;;;;;5050137;28;20030;-57
2022/06/02 08:46:15;;;;;;;36.35;12.32;;;14.90;99.90;;;;;;5056531;28;20681;-56
2022/06/02 08:48:49;;;;;;;19.30;9.85;;;15.20;99.90;;;;;;5055211;28;20032;-57
2022/06/02 08:51:29;;;;;;;18.95;9.98;;;15.40;99.90;;;;;;5059622;28;20025;-54
2022/06/02 08:54:19;;;;;;;18.98;9.65;;;15.50;99.90;;;;;;5038827;28;20521;-57
2022/06/02 08:57:06;;;;;;;16.98;9.20;;;15.80;99.90;;;;;;5053363;28;20033;-54
2022/06/02 08:59:55;;;;;;;14.27;7.32;;;16.00;99.90;;;;;;5055192;28;20028;-55
2022/06/02 09:02:55;;;;;;;13.45;7.60;;;16.30;99.90;;;;;;5059837;28;20036;-55
2022/06/02 09:05:48;;;;;;;13.63;7.47;;;16.50;99.90;;;;;;5060073;28;20097;-57
2022/06/02 09:10:55;;;;;;;13.85;8.20;;;16.50;99.90;;;;;;5125492;22;20051;-57
2022/06/02 09:13:35;;;;;;;11.45;7.32;;;16.40;99.90;;;;;;5105758;28;20024;-58
2022/06/02 09:16:29;;;;;;;11.73;6.50;;;16.60;99.90;;;;;;5105742;28;20116;-56
2022/06/02 09:19:25;;;;;;;10.82;5.80;;;16.80;99.90;;;;;;5104771;28;20020;-57
2022/06/02 09:22:02;;;;;;;11.10;5.97;;;17.10;99.90;;;;;;5088987;28;20036;-58
2022/06/02 09:24:37;;;;;;;6.97;4.35;;;17.20;99.90;;;;;;5093290;28;20039;-57
2022/06/02 09:27:21;;;;;;;;;;;17.30;99.90;;;;;;5094223;28;20040;-57
2022/06/02 09:29:50;;;;;;;12.80;5.80;;;17.30;99.90;;;;;;5094211;28;19912;-58
2022/06/02 09:32:41;;;;;;;8.98;5.72;;;17.10;99.90;;;;;;5091832;28;20036;-56
2022/06/02 09:35:19;;;;;;;8.05;3.85;;;16.90;99.90;;;;;;5091162;28;20028;-59
2022/06/02 09:38:23;;;;;;;5.63;3.83;;;17.00;99.90;;;;;;5093040;28;20028;-57
2022/06/02 09:41:14;;;;;;;13.60;4.60;;;17.00;99.90;;;;;;5078626;28;20090;-57
2022/06/02 09:44:11;;;;;;;9.35;4.15;;;17.00;99.90;;;;;;5092735;28;20046;-54
2022/06/02 09:47:02;;;;;;;8.73;4.55;;;17.10;99.90;;;;;;5091070;28;20028;-58
2022/06/02 09:50:10;;;;;;;9.32;4.70;;;16.90;99.90;;;;;;5093573;28;20032;-57
2022/06/02 09:53:07;;;;;;;6.13;3.33;;;17.20;99.90;;;;;;5093679;28;20092;-54
2022/06/02 09:55:51;;;;;;;7.68;4.07;;;17.70;99.90;;;;;;5088211;28;20069;-55
2022/06/02 09:58:53;;;;;;;9.18;4.32;;;18.10;99.90;;;;;;5093745;28;20032;-58
2022/06/02 10:01:50;;;;;;;6.00;3.60;;;18.40;99.90;;;;;;5095972;28;20584;-58
2022/06/02 10:04:53;;;;;;;7.93;4.35;;;18.30;99.90;;;;;;5038308;28;20160;-56
2022/06/02 10:07:40;;;;;;;7.45;3.72;;;18.30;99.90;;;;;;5089092;28;20027;-58
2022/06/02 10:10:34;;;;;;;8.90;3.72;;;18.40;99.90;;;;;;5092236;28;20027;-60
2022/06/02 10:13:26;;;;;;;4.10;2.85;;;18.50;99.90;;;;;;5091983;28;20024;-57
2022/06/02 10:16:35;;;;;;;5.80;2.38;;;18.80;99.90;;;;;;5091398;28;20056;-55
2022/06/02 10:19:16;;;;;;;2.88;1.92;;;19.00;99.90;;;;;;5090017;28;20024;-57
2022/06/02 10:22:20;;;;;;;3.05;2.10;;;19.40;99.90;;;;;;5092038;28;20034;-56
2022/06/02 10:24:51;;;;;;;3.95;2.75;;;19.70;99.90;;;;;;5092362;28;20028;-56
2022/06/02 10:27:28;;;;;;;7.22;2.92;;;20.10;99.90;;;;;;5091382;28;20028;-58
2022/06/02 10:30:19;;;;;;;3.60;2.25;;;19.80;99.90;;;;;;5090872;28;20024;-57
2022/06/02 10:33:15;;;;;;;2.20;2.00;;;20.20;99.90;;;;;;5093878;28;20091;-56
2022/06/02 10:36:00;;;;;;;5.03;3.13;;;20.30;99.90;;;;;;5094185;28;20016;-57
2022/06/02 10:38:46;;;;;;;2.75;1.65;;;20.00;99.90;;;;;;5092314;28;20028;-55
2022/06/02 10:41:45;;;;;;;4.40;2.10;;;20.10;99.90;;;;;;5088516;28;20020;-54
2022/06/02 10:44:19;;;;;;;3.55;2.00;;;20.10;99.90;;;;;;5091578;28;20024;-55
2022/06/02 10:47:12;;;;;;;3.00;1.85;;;20.60;99.90;;;;;;5091394;28;20525;-57
2022/06/02 10:49:53;;;;;;;2.50;1.83;;;20.80;99.90;;;;;;5089075;28;20035;-55
2022/06/02 10:52:57;;;;;;;7.00;2.70;;;20.60;99.90;;;;;;5093943;28;20070;-54
2022/06/02 10:55:38;;;;;;;2.83;2.08;;;20.80;99.90;;;;;;5087139;28;20020;-54
2022/06/02 10:58:28;;;;;;;3.72;2.50;;;20.90;99.90;;;;;;5090130;28;20555;-58
2022/06/02 11:01:30;;;;;;;4.57;2.10;;;20.80;98.90;;;;;;5087419;28;20043;-52
2022/06/02 11:04:06;;;;;;;3.03;2.33;;;20.70;99.90;;;;;;5095165;28;20032;-56
2022/06/02 11:07:09;;;;;;;2.92;1.92;;;20.70;98.60;;;;;;5091941;28;20054;-56
2022/06/02 11:09:50;;;;;;;4.13;2.13;;;20.80;98.10;;;;;;5091630;28;20034;-56
2022/06/02 11:12:40;;;;;;;2.60;1.77;;;20.80;99.20;;;;;;5091747;28;20020;-56
2022/06/02 11:15:37;;;;;;;2.47;2.00;;;21.00;99.90;;;;;;5092318;28;20028;-54
2022/06/02 11:18:30;;;;;;;3.28;1.50;;;21.40;97.60;;;;;;5091946;28;20438;-56
2022/06/02 11:21:21;;;;;;;4.70;2.13;;;21.60;99.50;;;;;;5087855;28;20100;-54
2022/06/02 11:24:24;;;;;;;2.30;1.80;;;21.40;96.80;;;;;;5090813;28;20028;-55
2022/06/02 11:27:27;;;;;;;2.42;2.17;;;21.20;98.80;;;;;;5006073;28;20040;-57
2022/06/02 11:30:21;;;;;;;5.05;3.17;;;21.40;99.90;;;;;;5090194;28;20024;-56
2022/06/02 11:33:24;;;;;;;4.97;3.22;;;21.80;98.50;;;;;;5091763;28;20120;-56
2022/06/02 11:36:08;;;;;;;5.15;3.10;;;21.60;97.10;;;;;;5090761;28;20492;-58
2022/06/02 11:38:54;;;;;;;4.45;2.80;;;21.00;97.60;;;;;;5085319;28;20096;-57
2022/06/02 11:41:48;;;;;;;3.70;2.42;;;20.70;97.90;;;;;;5084369;28;20092;-53
2022/06/02 11:44:23;;;;;;;4.22;2.78;;;21.20;99.90;;;;;;5089711;28;20032;-54
2022/06/02 11:46:54;;;;;;;3.33;2.22;;;21.40;99.80;;;;;;5083910;28;20058;-55
2022/06/02 11:49:22;;;;;;;7.57;2.67;;;21.70;99.90;;;;;;5084486;28;20057;-56
2022/06/02 11:52:33;;;;;;;4.40;2.25;;;21.90;96.80;;;;;;5084736;28;20401;-56
2022/06/02 11:55:22;;;;;;;6.68;2.97;;;22.00;99.30;;;;;;5082952;28;20517;-55
2022/06/02 11:58:07;;;;;;;7.97;3.60;;;21.60;98.00;;;;;;5084026;28;20084;-58
2022/06/02 12:00:33;;;;;;;4.95;2.13;;;21.20;97.50;;;;;;5044976;28;20640;-54
2022/06/02 12:03:45;;;;;;;4.80;2.85;;;21.80;98.10;;;;;;5086408;28;20068;-58
2022/06/02 12:06:29;;;;;;;2.50;2.15;;;21.40;96.80;;;;;;5083754;28;20048;-55
2022/06/02 12:09:12;;;;;;;4.72;2.20;;;21.20;99.90;;;;;;5085824;28;20118;-57
2022/06/02 12:11:56;;;;;;;4.07;2.40;;;20.80;99.90;;;;;;5086106;28;20031;-56
2022/06/02 12:14:49;;;;;;;4.20;2.58;;;20.50;99.90;;;;;;5087236;28;20023;-57
2022/06/02 12:17:39;;;;;;;2.45;1.80;;;20.60;99.90;;;;;;5086481;28;20020;-57
2022/06/02 12:20:27;;;;;;;3.22;2.33;;;21.00;98.60;;;;;;5086852;28;20111;-55
2022/06/02 12:22:52;;;;;;;2.10;1.70;;;21.00;99.70;;;;;;5078418;28;20033;-58
2022/06/02 12:25:24;;;;;;;2.15;1.92;;;21.40;99.50;;;;;;5088475;28;20220;-55
2022/06/02 12:27:59;;;;;;;2.88;2.00;;;21.60;99.90;;;;;;5086271;28;20099;-57
2022/06/02 12:30:47;;;;;;;2.30;2.10;;;22.00;97.60;;;;;;5084737;28;20032;-53
2022/06/02 12:33:27;;;;;;;4.40;2.65;;;22.50;98.90;;;;;;5088899;28;20027;-54
2022/06/02 12:36:25;;;;;;;2.88;1.98;;;23.10;96.40;;;;;;5088500;28;20028;-57
2022/06/02 12:39:14;;;;;;;8.38;3.58;;;23.30;97.90;;;;;;5054403;28;20036;-53
2022/06/02 12:42:10;;;;;;;8.68;2.35;;;23.80;94.60;;;;;;5084888;28;20177;-54
2022/06/02 12:44:50;;;;;;;2.85;2.28;;;22.70;96.50;;;;;;5087739;28;20028;-57
2022/06/02 12:47:48;;;;;;;3.65;2.72;;;22.60;97.30;;;;;;5083782;28;20031;-55
2022/06/02 12:50:37;;;;;;;5.07;2.20;;;23.00;95.90;;;;;;5086287;28;20039;-54
2022/06/02 12:53:41;;;;;;;3.25;2.25;;;23.40;95.80;;;;;;5083066;28;20027;-57
2022/06/02 12:56:16;;;;;;;3.33;2.20;;;23.00;98.80;;;;;;5087362;28;20102;-58
2022/06/02 12:59:05;;;;;;;4.57;2.30;;;23.20;95.20;;;;;;5087942;28;20031;-59
2022/06/02 13:02:02;;;;;;;2.55;2.13;;;23.40;97.50;;;;;;5085405;28;20028;-53
2022/06/02 13:05:16;;;;;;;2.45;2.22;;;22.40;94.80;;;;;;5085581;28;20028;-57
2022/06/02 13:08:14;;;;;;;2.50;2.22;;;23.10;96.50;;;;;;5084373;28;20032;-58
2022/06/02 13:10:42;;;;;;;3.47;2.33;;;22.80;94.10;;;;;;5078086;28;20051;-57
2022/06/02 13:13:36;;;;;;;2.92;2.10;;;22.80;95.20;;;;;;5083596;28;20029;-57
2022/06/02 13:16:19;;;;;;;4.57;2.47;;;23.30;97.20;;;;;;5076838;28;20040;-58
2022/06/02 13:18:51;;;;;;;3.47;2.30;;;24.30;93.30;;;;;;5086319;28;20073;-57
2022/06/02 13:22:03;;;;;;;2.88;1.80;;;24.20;93.90;;;;;;5088803;28;20028;-57
2022/06/02 13:24:43;;;;;;;4.35;2.15;;;23.80;91.10;;;;;;5088526;28;20032;-58
2022/06/02 13:27:45;;;;;;;2.60;1.52;;;24.00;91.10;;;;;;5083334;28;20082;-57
2022/06/02 13:30:35;;;;;;;7.50;2.40;;;24.10;91.50;;;;;;5081094;28;20035;-57
2022/06/02 13:33:10;;;;;;;2.70;2.13;;;23.80;92.50;;;;;;5081833;28;20024;-55
2022/06/02 13:36:08;;;;;;;3.17;1.83;;;23.80;92.30;;;;;;5085775;28;20026;-58
2022/06/02 13:39:11;;;;;;;4.18;1.58;;;23.50;90.90;;;;;;5081756;28;20023;-55
2022/06/02 13:42:05;;;;;;;1.75;1.40;;;23.60;92.20;;;;;;5086100;28;20036;-55
2022/06/02 13:44:49;;;;;;;1.52;1.20;;;23.70;95.50;;;;;;5071416;28;20048;-55
2022/06/02 13:47:49;;;;;;;2.90;1.40;;;24.40;90.60;;;;;;5089560;28;20038;-58
2022/06/02 13:50:31;;;;;;;2.92;1.75;;;24.00;92.20;;;;;;5083254;28;20075;-58
2022/06/02 13:53:32;;;;;;;4.25;1.60;;;23.70;91.20;;;;;;5082405;28;20050;-58
2022/06/02 13:59:23;;;;;;;1.90;1.42;;;23.70;92.40;;;;;;5082749;28;20031;-57
2022/06/02 14:02:26;;;;;;;1.77;1.20;;;23.60;91.50;;;;;;5085959;28;20047;-57
2022/06/02 14:05:17;;;;;;;2.05;1.13;;;24.40;91.20;;;;;;5085007;28;20032;-55
2022/06/02 14:07:42;;;;;;;1.02;1.00;;;24.80;91.20;;;;;;5088187;28;20103;-55
2022/06/02 14:10:32;;;;;;;1.13;1.02;;;25.10;90.70;;;;;;5088388;28;20611;-55
2022/06/02 14:13:24;;;;;;;1.50;1.40;;;25.30;86.70;;;;;;5084986;28;20781;-55
2022/06/02 14:16:05;;;;;;;1.88;1.50;;;25.00;86.50;;;;;;5090176;28;20131;-56
2022/06/02 14:18:58;;;;;;;1.27;1.17;;;24.00;88.50;;;;;;5085441;28;20028;-56
2022/06/02 14:21:45;;;;;;;2.17;1.73;;;23.50;90.70;;;;;;5092011;28;20386;-57
2022/06/02 14:24:43;;;;;;;2.38;1.73;;;23.50;90.00;;;;;;5088644;28;20060;-56
2022/06/02 14:27:21;;;;;;;1.92;1.40;;;24.30;87.80;;;;;;5084912;28;20027;-58
2022/06/02 14:30:12;;;;;;;3.65;1.50;;;24.70;89.30;;;;;;5089248;28;20177;-55
2022/06/02 14:33:10;;;;;;;1.10;1.00;;;23.60;85.00;;;;;;5087554;28;20036;-58